createdAt,value
2017-12-15T00:00:01.573Z,986.15
2017-12-15T00:01:01.558Z,986.20
2017-12-15T00:02:56.505Z,986.18
2017-12-15T00:03:56.002Z,986.19
2017-12-15T00:05:50.432Z,986.16
2017-12-15T00:06:50.946Z,986.20
2017-12-15T00:08:43.866Z,986.21
2017-12-15T00:09:44.372Z,986.19
2017-12-15T00:11:38.301Z,986.21
2017-12-15T00:12:38.807Z,986.20
2017-12-15T00:14:31.742Z,986.22
2017-12-15T00:15:31.690Z,986.24
2017-12-15T00:17:25.114Z,986.29
2017-12-15T00:18:25.112Z,986.27
2017-12-15T00:20:19.844Z,986.29
2017-12-15T00:21:19.561Z,986.30
2017-12-15T00:23:15.533Z,986.28
2017-12-15T00:24:15.495Z,986.33
2017-12-15T00:26:09.949Z,986.29
2017-12-15T00:27:09.944Z,986.32
2017-12-15T00:29:04.396Z,986.32
2017-12-15T00:30:04.391Z,986.33
2017-12-15T00:31:58.832Z,986.28
2017-12-15T00:32:58.797Z,986.24
2017-12-15T00:34:53.239Z,986.25
2017-12-15T00:35:53.224Z,986.24
2017-12-15T00:37:47.676Z,986.26
2017-12-15T00:38:47.663Z,986.28
2017-12-15T00:40:42.072Z,986.24
2017-12-15T00:41:42.070Z,986.23
2017-12-15T00:43:37.016Z,986.24
2017-12-15T00:44:36.498Z,986.23
2017-12-15T00:46:30.922Z,986.28
2017-12-15T00:47:30.933Z,986.28
2017-12-15T00:49:25.355Z,986.25
2017-12-15T00:50:25.351Z,986.31
2017-12-15T00:52:19.303Z,986.38
2017-12-15T00:53:19.293Z,986.37
2017-12-15T00:55:13.172Z,986.35
2017-12-15T00:56:13.180Z,986.42
2017-12-15T00:58:08.124Z,986.37
2017-12-15T00:59:07.614Z,986.40
2017-12-15T01:01:02.556Z,986.39
2017-12-15T01:02:02.487Z,986.38
2017-12-15T01:03:55.451Z,986.41
2017-12-15T01:04:56.377Z,986.40
2017-12-15T01:06:48.841Z,986.44
2017-12-15T01:07:48.848Z,986.43
2017-12-15T01:09:43.281Z,986.45
2017-12-15T01:10:43.295Z,986.45
2017-12-15T01:12:36.718Z,986.50
2017-12-15T01:13:36.705Z,986.46
2017-12-15T01:15:33.694Z,986.50
2017-12-15T01:16:34.091Z,986.56
2017-12-15T01:18:27.577Z,986.52
2017-12-15T01:19:26.330Z,986.55
2017-12-15T01:21:20.841Z,986.56
2017-12-15T01:22:20.832Z,986.58
2017-12-15T01:24:27.705Z,986.63
2017-12-15T01:25:15.258Z,986.62
2017-12-15T01:27:10.222Z,986.67
2017-12-15T01:28:10.232Z,986.66
2017-12-15T01:30:06.132Z,986.70
2017-12-15T01:31:05.626Z,986.74
2017-12-15T01:33:00.556Z,986.78
2017-12-15T01:34:00.054Z,986.77
2017-12-15T01:35:54.993Z,986.83
2017-12-15T01:36:54.473Z,986.84
2017-12-15T01:38:48.900Z,986.93
2017-12-15T01:39:48.906Z,986.87
2017-12-15T01:41:42.341Z,987.00
2017-12-15T01:42:42.333Z,986.98
2017-12-15T01:44:36.805Z,987.04
2017-12-15T01:45:36.762Z,987.11
2017-12-15T01:47:31.201Z,987.08
2017-12-15T01:48:31.258Z,987.09
2017-12-15T01:50:26.152Z,987.13
2017-12-15T01:51:27.545Z,987.14
2017-12-15T01:53:20.058Z,987.13
2017-12-15T01:54:20.104Z,987.14
2017-12-15T01:56:13.490Z,987.19
2017-12-15T01:57:13.994Z,987.21
2017-12-15T01:59:08.960Z,987.24
2017-12-15T02:00:08.948Z,987.28
2017-12-15T02:02:03.407Z,987.31
2017-12-15T02:03:03.403Z,987.32
2017-12-15T02:04:57.946Z,987.40
2017-12-15T02:05:57.923Z,987.42
2017-12-15T02:07:54.382Z,987.45
2017-12-15T02:08:53.911Z,987.42
2017-12-15T02:10:49.902Z,987.44
2017-12-15T02:11:50.361Z,987.45
2017-12-15T02:13:44.254Z,987.46
2017-12-15T02:14:44.754Z,987.54
2017-12-15T02:16:38.709Z,987.57
2017-12-15T02:17:38.668Z,987.59
2017-12-15T02:19:33.139Z,987.66
2017-12-15T02:20:33.116Z,987.65
2017-12-15T02:22:27.538Z,987.63
2017-12-15T02:23:28.067Z,987.69
2017-12-15T02:25:22.006Z,987.71
2017-12-15T02:26:21.970Z,987.68
2017-12-15T02:28:16.922Z,987.76
2017-12-15T02:29:16.402Z,987.75
2017-12-15T02:31:10.359Z,987.78
2017-12-15T02:32:09.808Z,987.78
2017-12-15T02:34:04.265Z,987.84
2017-12-15T02:35:04.231Z,987.86
2017-12-15T02:37:00.681Z,987.90
2017-12-15T02:38:00.159Z,987.94
2017-12-15T02:39:54.649Z,988.01
2017-12-15T02:40:54.639Z,988.02
2017-12-15T02:42:49.593Z,988.03
2017-12-15T02:43:49.090Z,988.05
2017-12-15T02:45:42.517Z,988.11
2017-12-15T02:46:42.503Z,988.11
2017-12-15T02:48:37.529Z,988.12
2017-12-15T02:49:37.499Z,988.11
2017-12-15T02:51:32.456Z,988.11
2017-12-15T02:52:31.922Z,988.12
2017-12-15T02:54:25.348Z,988.20
2017-12-15T02:55:25.355Z,988.18
2017-12-15T02:57:21.787Z,988.16
2017-12-15T02:58:21.267Z,988.20
2017-12-15T03:00:14.714Z,988.18
2017-12-15T03:01:15.221Z,988.16
2017-12-15T03:03:10.139Z,988.21
2017-12-15T03:04:09.147Z,988.21
2017-12-15T03:06:03.645Z,988.17
2017-12-15T03:07:03.613Z,988.22
2017-12-15T03:08:58.063Z,988.23
2017-12-15T03:09:58.062Z,988.20
2017-12-15T03:11:51.532Z,988.23
2017-12-15T03:12:51.503Z,988.23
2017-12-15T03:14:45.961Z,988.26
2017-12-15T03:15:45.956Z,988.29
2017-12-15T03:17:40.675Z,988.31
2017-12-15T03:18:41.373Z,988.30
2017-12-15T03:20:36.273Z,988.32
2017-12-15T03:21:36.278Z,988.30
2017-12-15T03:23:31.730Z,988.30
2017-12-15T03:24:30.719Z,988.32
2017-12-15T03:26:25.091Z,988.31
2017-12-15T03:27:24.148Z,988.33
2017-12-15T03:29:19.091Z,988.31
2017-12-15T03:30:18.566Z,988.30
2017-12-15T03:32:13.003Z,988.34
2017-12-15T03:33:12.993Z,988.32
2017-12-15T03:35:07.952Z,988.36
2017-12-15T03:36:07.411Z,988.33
2017-12-15T03:38:01.889Z,988.31
2017-12-15T03:39:01.840Z,988.29
2017-12-15T03:40:57.295Z,988.32
2017-12-15T03:41:56.783Z,988.31
2017-12-15T03:43:50.687Z,988.39
2017-12-15T03:44:51.192Z,988.36
2017-12-15T03:46:47.143Z,988.33
2017-12-15T03:47:48.140Z,988.34
2017-12-15T03:49:40.041Z,988.33
2017-12-15T03:50:40.030Z,988.29
2017-12-15T03:52:34.454Z,988.29
2017-12-15T03:53:34.460Z,988.33
2017-12-15T03:55:29.421Z,988.33
2017-12-15T03:56:27.858Z,988.30
2017-12-15T03:58:22.332Z,988.36
2017-12-15T03:59:22.815Z,988.33
2017-12-15T04:01:16.258Z,988.32
2017-12-15T04:02:17.261Z,988.30
2017-12-15T04:04:09.692Z,988.36
2017-12-15T04:05:09.688Z,988.30
2017-12-15T04:07:03.600Z,988.34
2017-12-15T04:08:03.583Z,988.34
2017-12-15T04:09:57.024Z,988.34
2017-12-15T04:10:57.010Z,988.35
2017-12-15T04:12:51.486Z,988.33
2017-12-15T04:13:51.963Z,988.37
2017-12-15T04:15:47.400Z,988.37
2017-12-15T04:16:47.390Z,988.40
2017-12-15T04:18:43.359Z,988.34
2017-12-15T04:19:43.298Z,988.39
2017-12-15T04:21:37.748Z,988.41
2017-12-15T04:22:37.743Z,988.44
2017-12-15T04:24:32.203Z,988.44
2017-12-15T04:25:32.168Z,988.45
2017-12-15T04:27:26.596Z,988.49
2017-12-15T04:28:26.592Z,988.42
2017-12-15T04:30:20.011Z,988.41
2017-12-15T04:31:19.989Z,988.44
2017-12-15T04:33:16.944Z,988.49
2017-12-15T04:34:15.924Z,988.49
2017-12-15T04:36:11.891Z,988.53
2017-12-15T04:37:12.377Z,988.50
2017-12-15T04:39:07.298Z,988.51
2017-12-15T04:40:06.394Z,988.48
2017-12-15T04:42:01.251Z,988.54
2017-12-15T04:43:00.699Z,988.57
2017-12-15T04:44:56.673Z,988.60
2017-12-15T04:45:56.620Z,988.64
2017-12-15T04:47:51.033Z,988.63
2017-12-15T04:48:51.055Z,988.60
2017-12-15T04:50:47.031Z,988.66
2017-12-15T04:51:46.960Z,988.68
2017-12-15T04:53:42.930Z,988.66
2017-12-15T04:54:42.888Z,988.66
2017-12-15T04:56:39.314Z,988.68
2017-12-15T04:57:38.799Z,988.65
2017-12-15T04:59:34.242Z,988.70
2017-12-15T05:00:33.228Z,988.71
2017-12-15T05:02:27.642Z,988.73
2017-12-15T05:03:27.639Z,988.74
2017-12-15T05:05:23.109Z,988.77
2017-12-15T05:06:23.596Z,988.79
2017-12-15T05:08:17.369Z,988.78
2017-12-15T05:09:17.886Z,988.80
2017-12-15T05:11:11.794Z,988.79
2017-12-15T05:12:11.779Z,988.81
2017-12-15T05:14:06.241Z,988.77
2017-12-15T05:15:06.726Z,988.77
2017-12-15T05:17:00.662Z,988.82
2017-12-15T05:18:00.626Z,988.81
2017-12-15T05:19:55.112Z,988.83
2017-12-15T05:20:55.052Z,988.80
2017-12-15T05:22:49.487Z,988.85
2017-12-15T05:23:49.487Z,988.84
2017-12-15T05:25:44.944Z,988.84
2017-12-15T05:26:43.913Z,988.84
2017-12-15T05:28:42.879Z,988.81
2017-12-15T05:29:41.840Z,988.87
2017-12-15T05:31:36.802Z,988.85
2017-12-15T05:32:36.259Z,988.84
2017-12-15T05:34:30.681Z,988.90
2017-12-15T05:35:31.201Z,988.87
2017-12-15T05:37:27.138Z,988.81
2017-12-15T05:38:26.621Z,988.84
2017-12-15T05:40:21.564Z,988.83
2017-12-15T05:41:21.012Z,988.87
2017-12-15T05:43:15.479Z,988.89
2017-12-15T05:44:15.447Z,988.85
2017-12-15T05:46:10.898Z,988.90
2017-12-15T05:47:09.870Z,988.89
2017-12-15T05:49:04.337Z,988.89
2017-12-15T05:50:04.826Z,988.88
2017-12-15T05:51:58.713Z,988.88
2017-12-15T05:52:58.717Z,988.89
2017-12-15T05:54:53.174Z,988.89
2017-12-15T05:55:53.163Z,988.89
2017-12-15T05:57:47.595Z,988.94
2017-12-15T05:58:48.123Z,988.92
2017-12-15T06:00:42.539Z,988.93
2017-12-15T06:01:41.980Z,988.91
2017-12-15T06:03:36.921Z,988.96
2017-12-15T06:04:36.398Z,988.92
2017-12-15T06:06:30.838Z,988.99
2017-12-15T06:07:30.852Z,988.99
2017-12-15T06:09:25.287Z,989.05
2017-12-15T06:10:25.272Z,989.07
2017-12-15T06:12:19.738Z,989.09
2017-12-15T06:13:19.694Z,989.06
2017-12-15T06:15:13.143Z,989.11
2017-12-15T06:16:13.643Z,989.11
2017-12-15T06:18:08.093Z,989.14
2017-12-15T06:19:08.093Z,989.14
2017-12-15T06:21:01.992Z,989.18
2017-12-15T06:22:01.942Z,989.19
2017-12-15T06:23:55.894Z,989.21
2017-12-15T06:24:55.900Z,989.22
2017-12-15T06:26:49.807Z,989.23
2017-12-15T06:27:49.797Z,989.19
2017-12-15T06:29:44.234Z,989.20
2017-12-15T06:30:44.234Z,989.22
2017-12-15T06:32:38.685Z,989.24
2017-12-15T06:33:38.650Z,989.26
2017-12-15T06:35:33.081Z,989.28
2017-12-15T06:36:33.100Z,989.25
2017-12-15T06:38:27.557Z,989.23
2017-12-15T06:39:27.513Z,989.28
2017-12-15T06:41:22.963Z,989.28
2017-12-15T06:42:22.395Z,989.30
2017-12-15T06:44:17.329Z,989.32
2017-12-15T06:45:17.330Z,989.33
2017-12-15T06:47:11.256Z,989.37
2017-12-15T06:48:11.241Z,989.33
2017-12-15T06:50:06.182Z,989.34
2017-12-15T06:51:05.670Z,989.37
2017-12-15T06:53:00.611Z,989.41
2017-12-15T06:54:00.089Z,989.36
2017-12-15T06:55:55.549Z,989.37
2017-12-15T06:56:55.039Z,989.40
2017-12-15T06:58:51.486Z,989.37
2017-12-15T06:59:50.472Z,989.39
2017-12-15T07:01:46.897Z,989.38
2017-12-15T07:02:46.385Z,989.39
2017-12-15T07:04:42.315Z,989.44
2017-12-15T07:05:42.299Z,989.46
2017-12-15T07:07:36.749Z,989.47
2017-12-15T07:08:36.751Z,989.44
2017-12-15T07:10:31.218Z,989.45
2017-12-15T07:11:31.683Z,989.48
2017-12-15T07:13:27.598Z,989.47
2017-12-15T07:14:27.087Z,989.47
2017-12-15T07:16:20.489Z,989.46
2017-12-15T07:17:20.503Z,989.50
2017-12-15T07:19:16.475Z,989.46
2017-12-15T07:20:16.419Z,989.44
2017-12-15T07:22:13.793Z,989.46
2017-12-15T07:23:12.865Z,989.45
2017-12-15T07:25:07.309Z,989.46
2017-12-15T07:26:06.761Z,989.50
2017-12-15T07:28:01.186Z,989.50
2017-12-15T07:29:01.172Z,989.52
2017-12-15T07:30:57.113Z,989.55
2017-12-15T07:31:57.082Z,989.56
2017-12-15T07:33:51.535Z,989.55
2017-12-15T07:34:52.023Z,989.52
2017-12-15T07:36:44.927Z,989.53
2017-12-15T07:37:44.941Z,989.55
2017-12-15T07:39:40.903Z,989.50
2017-12-15T07:40:41.376Z,989.52
2017-12-15T07:42:34.469Z,989.51
2017-12-15T07:43:34.316Z,989.52
2017-12-15T07:45:27.755Z,989.53
2017-12-15T07:46:27.723Z,989.55
2017-12-15T07:48:22.166Z,989.55
2017-12-15T07:49:22.156Z,989.57
2017-12-15T07:51:18.064Z,989.52
2017-12-15T07:52:18.614Z,989.57
2017-12-15T07:54:12.516Z,989.57
2017-12-15T07:55:13.432Z,989.65
2017-12-15T07:57:07.946Z,989.65
2017-12-15T07:58:07.093Z,989.63
2017-12-15T08:00:03.000Z,989.65
2017-12-15T08:01:02.956Z,989.63
2017-12-15T08:02:57.379Z,989.68
2017-12-15T08:03:57.399Z,989.62
2017-12-15T08:05:51.839Z,989.69
2017-12-15T08:06:51.843Z,989.66
2017-12-15T08:08:47.787Z,989.72
2017-12-15T08:09:47.774Z,989.73
2017-12-15T08:11:44.003Z,989.80
2017-12-15T08:12:42.208Z,989.82
2017-12-15T08:14:36.162Z,989.85
2017-12-15T08:15:35.642Z,989.82
2017-12-15T08:17:29.596Z,989.89
2017-12-15T08:18:29.087Z,989.90
2017-12-15T08:20:23.580Z,989.96
2017-12-15T08:21:23.544Z,989.95
2017-12-15T08:23:19.486Z,989.94
2017-12-15T08:24:19.440Z,989.92
2017-12-15T08:26:14.400Z,989.98
2017-12-15T08:29:08.329Z,989.95
2017-12-15T08:30:08.304Z,989.99
2017-12-15T08:32:02.251Z,990.00
2017-12-15T08:33:01.724Z,989.97
2017-12-15T08:34:57.686Z,990.01
2017-12-15T08:35:59.178Z,990.04
2017-12-15T08:37:52.107Z,990.07
2017-12-15T08:38:53.022Z,990.09
2017-12-15T08:40:47.047Z,990.13
2017-12-15T08:41:46.482Z,990.09
2017-12-15T08:43:41.931Z,990.15
2017-12-15T08:44:40.911Z,990.14
2017-12-15T08:46:35.353Z,990.17
2017-12-15T08:47:35.863Z,990.17
2017-12-15T08:49:31.316Z,990.17
2017-12-15T08:50:29.780Z,990.20
2017-12-15T08:52:23.213Z,990.16
2017-12-15T08:53:23.209Z,990.19
2017-12-15T08:55:17.660Z,990.18
2017-12-15T08:56:17.665Z,990.19
2017-12-15T08:58:12.618Z,990.27
2017-12-15T08:59:12.096Z,990.27
2017-12-15T09:01:06.467Z,990.24
2017-12-15T09:02:07.040Z,990.31
2017-12-15T09:04:01.962Z,990.34
2017-12-15T09:05:01.964Z,990.33
2017-12-15T09:06:56.371Z,990.37
2017-12-15T09:07:56.362Z,990.40
2017-12-15T09:09:51.826Z,990.44
2017-12-15T09:10:51.320Z,990.39
2017-12-15T09:12:46.720Z,990.43
2017-12-15T09:13:46.719Z,990.40
2017-12-15T09:15:40.186Z,990.38
2017-12-15T09:16:40.149Z,990.39
2017-12-15T09:18:36.098Z,990.42
2017-12-15T09:19:34.601Z,990.37
2017-12-15T09:21:30.577Z,990.40
2017-12-15T09:22:30.525Z,990.40
2017-12-15T09:24:24.987Z,990.42
2017-12-15T09:25:25.499Z,990.46
2017-12-15T09:27:18.416Z,990.44
2017-12-15T09:28:18.398Z,990.48
2017-12-15T09:30:13.852Z,990.52
2017-12-15T09:31:12.832Z,990.50
2017-12-15T09:33:06.243Z,990.53
2017-12-15T09:34:06.793Z,990.52
2017-12-15T09:36:00.681Z,990.51
2017-12-15T09:37:00.674Z,990.47
2017-12-15T09:38:55.110Z,990.50
2017-12-15T09:39:55.086Z,990.53
2017-12-15T09:41:49.524Z,990.57
2017-12-15T09:42:49.523Z,990.60
2017-12-15T09:44:45.488Z,990.70
2017-12-15T09:45:45.490Z,990.68
2017-12-15T09:47:41.443Z,990.69
2017-12-15T09:48:41.394Z,990.70
2017-12-15T09:50:35.801Z,990.66
2017-12-15T09:51:35.803Z,990.71
2017-12-15T09:53:30.749Z,990.70
2017-12-15T09:54:30.230Z,990.67
2017-12-15T09:56:24.667Z,990.74
2017-12-15T09:57:24.654Z,990.74
2017-12-15T09:59:20.109Z,990.78
2017-12-15T10:00:19.633Z,990.76
2017-12-15T10:02:13.065Z,990.80
2017-12-15T10:03:12.561Z,990.85
2017-12-15T10:05:06.004Z,990.85
2017-12-15T10:06:06.000Z,990.83
2017-12-15T10:08:00.441Z,990.83
2017-12-15T10:09:00.438Z,990.83
2017-12-15T10:10:54.861Z,990.85
2017-12-15T10:11:54.864Z,990.82
2017-12-15T10:13:50.312Z,990.84
2017-12-15T10:14:49.278Z,990.84
2017-12-15T10:16:42.716Z,990.85
2017-12-15T10:17:43.232Z,990.84
2017-12-15T10:19:38.626Z,990.81
2017-12-15T10:20:38.633Z,990.80
2017-12-15T10:22:35.081Z,990.75
2017-12-15T10:23:34.571Z,990.78
2017-12-15T10:25:32.518Z,990.75
2017-12-15T10:26:33.028Z,990.79
2017-12-15T10:28:26.955Z,990.78
2017-12-15T10:29:26.942Z,990.80
2017-12-15T10:31:21.890Z,990.73
2017-12-15T10:32:21.345Z,990.69
2017-12-15T10:34:15.798Z,990.77
2017-12-15T10:35:15.797Z,990.77
2017-12-15T10:37:12.213Z,990.73
2017-12-15T10:38:11.722Z,990.75
2017-12-15T10:40:05.165Z,990.75
2017-12-15T10:41:05.652Z,990.77
2017-12-15T10:42:59.574Z,990.77
2017-12-15T10:43:59.608Z,990.79
2017-12-15T10:45:55.542Z,990.80
2017-12-15T10:46:55.515Z,990.77
2017-12-15T10:48:49.958Z,990.85
2017-12-15T10:49:49.976Z,990.82
2017-12-15T10:51:45.922Z,990.83
2017-12-15T10:52:44.383Z,990.84
2017-12-15T10:54:38.816Z,990.82
2017-12-15T10:55:38.819Z,990.83
2017-12-15T10:57:33.273Z,990.78
2017-12-15T10:58:33.239Z,990.81
2017-12-15T11:00:28.195Z,990.83
2017-12-15T11:01:28.185Z,990.84
2017-12-15T11:03:22.599Z,990.86
2017-12-15T11:04:22.084Z,990.87
2017-12-15T11:06:20.042Z,990.93
2017-12-15T11:07:20.036Z,990.93
2017-12-15T11:09:14.483Z,990.96
2017-12-15T11:10:14.463Z,990.93
2017-12-15T11:12:10.416Z,990.98
2017-12-15T11:13:10.919Z,990.96
2017-12-15T11:15:05.368Z,990.97
2017-12-15T11:16:04.851Z,990.98
2017-12-15T11:17:59.283Z,990.97
2017-12-15T11:18:59.300Z,991.00
2017-12-15T11:20:54.245Z,991.00
2017-12-15T11:21:54.231Z,991.00
2017-12-15T11:23:51.143Z,991.00
2017-12-15T11:24:50.147Z,991.00
2017-12-15T11:26:44.120Z,990.99
2017-12-15T11:27:44.063Z,990.98
2017-12-15T11:29:40.024Z,990.96
2017-12-15T11:30:40.509Z,990.96
2017-12-15T11:32:34.424Z,990.99
2017-12-15T11:33:34.425Z,991.02
2017-12-15T11:35:29.374Z,991.05
2017-12-15T11:36:28.879Z,991.03
2017-12-15T11:38:23.819Z,991.07
2017-12-15T11:39:23.295Z,991.08
2017-12-15T11:41:17.748Z,991.01
2017-12-15T11:42:16.733Z,991.04
2017-12-15T11:44:10.170Z,991.03
2017-12-15T11:45:10.677Z,991.03
2017-12-15T11:47:04.606Z,991.01
2017-12-15T11:48:04.587Z,990.98
2017-12-15T11:49:59.013Z,991.03
2017-12-15T11:50:59.541Z,991.04
2017-12-15T11:52:52.457Z,991.05
2017-12-15T11:53:52.450Z,991.07
2017-12-15T11:55:47.405Z,991.09
2017-12-15T11:56:46.904Z,991.08
2017-12-15T11:58:43.841Z,991.08
2017-12-15T11:59:42.831Z,991.12
2017-12-15T12:01:37.260Z,991.12
2017-12-15T12:02:37.270Z,991.08
2017-12-15T12:04:33.203Z,991.13
2017-12-15T12:05:33.219Z,991.12
2017-12-15T12:07:29.177Z,991.10
2017-12-15T12:08:29.137Z,991.10
2017-12-15T12:10:24.607Z,991.05
2017-12-15T12:11:24.089Z,991.03
2017-12-15T12:13:19.498Z,991.01
2017-12-15T12:14:19.497Z,991.04
2017-12-15T12:16:13.920Z,991.04
2017-12-15T12:17:14.211Z,991.06
2017-12-15T12:19:08.361Z,991.08
2017-12-15T12:20:08.344Z,991.10
2017-12-15T12:22:02.773Z,991.10
2017-12-15T12:23:03.306Z,991.09
2017-12-15T12:24:57.235Z,991.14
2017-12-15T12:25:57.217Z,991.19
2017-12-15T12:27:51.657Z,991.22
2017-12-15T12:28:51.670Z,991.19
2017-12-15T12:30:48.597Z,991.26
2017-12-15T12:31:47.553Z,991.27
2017-12-15T12:33:42.494Z,991.28
2017-12-15T12:34:42.501Z,991.31
2017-12-15T12:36:36.960Z,991.32
2017-12-15T12:37:36.440Z,991.38
2017-12-15T12:39:32.375Z,991.36
2017-12-15T12:40:30.854Z,991.34
2017-12-15T12:42:24.331Z,991.33
2017-12-15T12:43:24.296Z,991.35
2017-12-15T12:45:17.733Z,991.40
2017-12-15T12:46:17.715Z,991.38
2017-12-15T12:48:12.187Z,991.36
2017-12-15T12:49:12.167Z,991.36
2017-12-15T12:51:07.612Z,991.39
2017-12-15T12:52:06.562Z,991.42
2017-12-15T12:53:59.975Z,991.42
2017-12-15T12:54:59.985Z,991.44
2017-12-15T12:56:54.427Z,991.42
2017-12-15T12:57:54.426Z,991.45
2017-12-15T12:59:48.874Z,991.57
2017-12-15T13:00:48.847Z,991.60
2017-12-15T13:02:44.816Z,991.60
2017-12-15T13:03:44.795Z,991.61
2017-12-15T13:05:41.243Z,991.62
2017-12-15T13:06:39.253Z,991.63
2017-12-15T13:08:32.699Z,991.63
2017-12-15T13:09:32.694Z,991.63
2017-12-15T13:11:29.139Z,991.65
2017-12-15T13:12:28.616Z,991.63
2017-12-15T13:14:23.035Z,991.61
2017-12-15T13:15:23.031Z,991.61
2017-12-15T13:17:18.977Z,991.65
2017-12-15T13:18:18.969Z,991.64
2017-12-15T13:20:14.850Z,991.64
2017-12-15T13:21:13.417Z,991.63
2017-12-15T13:23:09.367Z,991.67
2017-12-15T13:24:09.341Z,991.66
2017-12-15T13:26:05.310Z,991.66
2017-12-15T13:27:05.285Z,991.69
2017-12-15T13:29:01.230Z,991.69
2017-12-15T13:30:01.738Z,991.66
2017-12-15T13:31:55.680Z,991.71
2017-12-15T13:32:56.664Z,991.74
2017-12-15T13:34:50.632Z,991.79
2017-12-15T13:35:50.102Z,991.76
2017-12-15T13:37:44.573Z,991.77
2017-12-15T13:38:45.564Z,991.80
2017-12-15T13:40:40.533Z,991.84
2017-12-15T13:41:41.008Z,991.86
2017-12-15T13:43:34.911Z,991.86
2017-12-15T13:44:34.893Z,991.85
2017-12-15T13:46:29.846Z,991.89
2017-12-15T13:47:29.317Z,991.91
2017-12-15T13:49:24.268Z,991.94
2017-12-15T13:50:23.765Z,991.89
2017-12-15T13:52:17.225Z,991.94
2017-12-15T13:53:17.214Z,991.91
2017-12-15T13:55:11.653Z,991.93
2017-12-15T13:56:11.649Z,991.92
2017-12-15T13:58:07.621Z,991.97
2017-12-15T13:59:06.072Z,992.00
2017-12-15T14:01:00.557Z,991.97
2017-12-15T14:02:00.467Z,992.00
2017-12-15T14:03:54.888Z,992.03
2017-12-15T14:04:54.907Z,992.01
2017-12-15T14:06:49.359Z,991.98
2017-12-15T14:07:49.343Z,992.01
2017-12-15T14:09:44.789Z,992.03
2017-12-15T14:10:43.792Z,992.01
2017-12-15T14:12:37.732Z,992.01
2017-12-15T14:13:37.241Z,992.01
2017-12-15T14:15:32.188Z,992.04
2017-12-15T14:16:31.655Z,992.07
2017-12-15T14:18:26.140Z,992.07
2017-12-15T14:19:26.621Z,992.11
2017-12-15T14:21:20.104Z,992.12
2017-12-15T14:22:19.529Z,992.14
2017-12-15T14:24:13.981Z,992.11
2017-12-15T14:25:13.979Z,992.14
2017-12-15T14:27:10.438Z,992.17
2017-12-15T14:28:08.419Z,992.21
2017-12-15T14:30:04.396Z,992.19
2017-12-15T14:31:04.349Z,992.22
2017-12-15T14:32:59.285Z,992.22
2017-12-15T14:33:57.804Z,992.23
2017-12-15T14:35:51.233Z,992.21
2017-12-15T14:36:51.214Z,992.24
2017-12-15T14:38:45.657Z,992.24
2017-12-15T14:39:45.649Z,992.27
2017-12-15T14:41:40.117Z,992.27
2017-12-15T14:42:40.103Z,992.27
2017-12-15T14:44:34.568Z,992.32
2017-12-15T14:45:35.046Z,992.31
2017-12-15T14:47:28.985Z,992.32
2017-12-15T14:48:28.948Z,992.31
2017-12-15T14:50:24.892Z,992.32
2017-12-15T14:51:24.867Z,992.35
2017-12-15T14:53:24.024Z,992.37
2017-12-15T14:54:18.836Z,992.36
2017-12-15T14:56:13.255Z,992.39
2017-12-15T14:57:11.754Z,992.38
2017-12-15T14:59:06.161Z,992.47
2017-12-15T15:00:06.144Z,992.49
2017-12-15T15:01:59.618Z,992.53
2017-12-15T15:02:59.577Z,992.53
2017-12-15T15:04:54.580Z,992.60
2017-12-15T15:05:54.010Z,992.59
2017-12-15T15:07:48.458Z,992.64
2017-12-15T15:08:48.965Z,992.65
2017-12-15T15:10:41.865Z,992.69
2017-12-15T15:11:42.411Z,992.70
2017-12-15T15:13:35.344Z,992.69
2017-12-15T15:14:35.285Z,992.71
2017-12-15T15:16:29.738Z,992.69
2017-12-15T15:17:29.728Z,992.69
2017-12-15T15:19:24.174Z,992.67
2017-12-15T15:20:24.686Z,992.69
2017-12-15T15:22:19.109Z,992.67
2017-12-15T15:23:18.611Z,992.75
2017-12-15T15:25:14.564Z,992.80
2017-12-15T15:26:14.534Z,992.79
2017-12-15T15:28:09.012Z,992.82
2017-12-15T15:29:08.981Z,992.86
2017-12-15T15:31:02.436Z,992.85
2017-12-15T15:32:02.386Z,992.83
2017-12-15T15:33:58.836Z,992.84
2017-12-15T15:34:56.831Z,992.85
2017-12-15T15:36:51.303Z,992.85
2017-12-15T15:37:51.258Z,992.82
2017-12-15T15:39:46.713Z,992.85
2017-12-15T15:40:46.218Z,992.87
2017-12-15T15:42:40.189Z,992.86
2017-12-15T15:43:40.663Z,992.88
2017-12-15T15:45:35.080Z,992.88
2017-12-15T15:46:34.568Z,992.93
2017-12-15T15:48:28.522Z,992.96
2017-12-15T15:49:28.020Z,992.96
2017-12-15T15:51:22.382Z,993.00
2017-12-15T15:52:22.387Z,993.00
2017-12-15T15:54:16.861Z,993.05
2017-12-15T15:55:16.843Z,993.08
2017-12-15T15:57:11.773Z,993.04
2017-12-15T15:58:11.783Z,993.07
2017-12-15T16:00:05.712Z,993.11
2017-12-15T16:01:05.704Z,993.07
2017-12-15T16:03:01.159Z,993.12
2017-12-15T16:04:00.133Z,993.16
2017-12-15T16:05:54.601Z,993.15
2017-12-15T16:06:55.087Z,993.16
2017-12-15T16:08:50.544Z,993.19
2017-12-15T16:09:51.013Z,993.23
2017-12-15T16:11:44.949Z,993.24
2017-12-15T16:12:44.956Z,993.21
2017-12-15T16:14:39.413Z,993.27
2017-12-15T16:15:39.405Z,993.28
2017-12-15T16:17:33.829Z,993.28
2017-12-15T16:18:34.347Z,993.27
2017-12-15T16:20:28.770Z,993.35
2017-12-15T16:21:28.234Z,993.35
2017-12-15T16:23:22.655Z,993.36
2017-12-15T16:24:22.654Z,993.32
2017-12-15T16:26:17.108Z,993.33
2017-12-15T16:27:17.098Z,993.33
2017-12-15T16:29:11.044Z,993.36
2017-12-15T16:30:12.780Z,993.35
2017-12-15T16:32:06.466Z,993.36
2017-12-15T16:33:05.937Z,993.33
2017-12-15T16:34:59.346Z,993.36
2017-12-15T16:35:59.349Z,993.38
2017-12-15T16:37:55.299Z,993.38
2017-12-15T16:38:56.802Z,993.45
2017-12-15T16:40:50.209Z,993.43
2017-12-15T16:41:49.687Z,993.45
2017-12-15T16:43:44.113Z,993.47
2017-12-15T16:44:44.121Z,993.47
2017-12-15T16:46:38.556Z,993.57
2017-12-15T16:47:39.074Z,993.57
2017-12-15T16:49:32.009Z,993.63
2017-12-15T16:50:32.510Z,993.64
2017-12-15T16:52:26.414Z,993.61
2017-12-15T16:53:26.431Z,993.66
2017-12-15T16:55:20.844Z,993.64
2017-12-15T16:56:21.381Z,993.66
2017-12-15T16:58:15.314Z,993.65
2017-12-15T16:59:15.274Z,993.68
2017-12-15T17:01:09.788Z,993.68
2017-12-15T17:02:09.797Z,993.73
2017-12-15T17:04:04.231Z,993.73
2017-12-15T17:05:04.218Z,993.69
2017-12-15T17:07:00.172Z,993.75
2017-12-15T17:08:00.179Z,993.81
2017-12-15T17:09:54.578Z,993.76
2017-12-15T17:10:54.598Z,993.84
2017-12-15T17:12:49.525Z,993.80
2017-12-15T17:13:48.991Z,993.79
2017-12-15T17:15:43.464Z,993.84
2017-12-15T17:16:44.944Z,993.89
2017-12-15T17:18:36.882Z,993.86
2017-12-15T17:19:37.385Z,993.88
2017-12-15T17:21:30.328Z,993.92
2017-12-15T17:22:30.298Z,993.94
2017-12-15T17:24:25.237Z,993.95
2017-12-15T17:25:24.723Z,993.99
2017-12-15T17:27:19.683Z,994.02
2017-12-15T17:28:19.145Z,994.01
2017-12-15T17:30:13.113Z,994.01
2017-12-15T17:31:12.563Z,994.01
2017-12-15T17:33:08.531Z,994.03
2017-12-15T17:34:08.492Z,994.05
2017-12-15T17:36:02.922Z,993.98
2017-12-15T17:37:02.918Z,994.06
2017-12-15T17:38:56.894Z,994.12
2017-12-15T17:39:56.345Z,994.10
2017-12-15T17:41:50.772Z,994.16
2017-12-15T17:42:50.773Z,994.12
2017-12-15T17:44:47.148Z,994.15
2017-12-15T17:45:45.208Z,994.15
2017-12-15T17:47:40.164Z,994.18
2017-12-15T17:48:38.649Z,994.20
2017-12-15T17:50:33.043Z,994.21
2017-12-15T17:51:33.053Z,994.23
2017-12-15T17:53:28.004Z,994.27
2017-12-15T17:54:28.006Z,994.30
2017-12-15T17:56:21.906Z,994.26
2017-12-15T17:57:21.906Z,994.27
2017-12-15T17:59:16.350Z,994.38
2017-12-15T18:00:16.859Z,994.34
2017-12-15T18:02:09.801Z,994.39
2017-12-15T18:03:10.319Z,994.39
2017-12-15T18:05:05.234Z,994.39
2017-12-15T18:06:04.202Z,994.43
2017-12-15T18:07:58.624Z,994.43
2017-12-15T18:08:58.651Z,994.45